createdAt,value
2018-08-12T00:02:20.974Z,11.40
2018-08-12T00:04:53.655Z,11.50
2018-08-12T00:07:22.137Z,11.40
2018-08-12T00:09:50.631Z,11.40
2018-08-12T00:12:19.110Z,11.30
2018-08-12T00:14:47.734Z,11.30
2018-08-12T00:17:16.288Z,11.30
2018-08-12T00:19:44.766Z,11.20
2018-08-12T00:22:13.250Z,11.20
2018-08-12T00:24:41.696Z,11.10
2018-08-12T00:27:10.144Z,11.00
2018-08-12T00:29:38.681Z,11.00
2018-08-12T00:32:07.189Z,11.00
2018-08-12T00:34:35.667Z,11.00
2018-08-12T00:37:04.877Z,11.00
2018-08-12T00:39:33.364Z,11.00
2018-08-12T00:42:01.822Z,10.90
2018-08-12T00:44:30.297Z,10.90
2018-08-12T00:46:58.739Z,10.90
2018-08-12T00:49:27.201Z,10.90
2018-08-12T00:51:55.706Z,10.90
2018-08-12T00:54:24.213Z,10.80
2018-08-12T00:56:52.652Z,10.70
2018-08-12T00:59:21.154Z,10.70
2018-08-12T01:01:49.609Z,10.70
2018-08-12T01:04:18.117Z,10.70
2018-08-12T01:06:46.597Z,10.60
2018-08-12T01:09:15.081Z,10.60
2018-08-12T01:11:43.514Z,10.60
2018-08-12T01:14:12.018Z,10.60
2018-08-12T01:16:40.479Z,10.60
2018-08-12T01:19:09.077Z,10.60
2018-08-12T01:21:37.674Z,10.60
2018-08-12T01:24:06.172Z,10.60
2018-08-12T01:26:34.628Z,10.60
2018-08-12T01:29:03.177Z,10.50
2018-08-12T01:31:31.654Z,10.50
2018-08-12T01:34:00.133Z,10.40
2018-08-12T01:36:28.559Z,10.40
2018-08-12T01:38:57.055Z,10.40
2018-08-12T01:41:25.504Z,10.40
2018-08-12T01:43:53.957Z,10.40
2018-08-12T01:46:22.731Z,10.40
2018-08-12T01:48:51.176Z,10.40
2018-08-12T01:51:19.705Z,10.30
2018-08-12T01:53:48.193Z,10.30
2018-08-12T01:56:16.693Z,10.30
2018-08-12T01:58:45.193Z,10.20
2018-08-12T02:01:13.655Z,10.30
2018-08-12T02:03:42.109Z,10.20
2018-08-12T02:06:10.597Z,10.20
2018-08-12T02:08:39.097Z,10.20
2018-08-12T02:11:07.730Z,10.20
2018-08-12T02:13:36.177Z,10.10
2018-08-12T02:16:04.613Z,10.00
2018-08-12T02:18:33.102Z,10.00
2018-08-12T02:21:01.574Z,10.00
2018-08-12T02:23:30.063Z,10.00
2018-08-12T02:25:58.538Z,10.00
2018-08-12T02:28:27.021Z,10.00
2018-08-12T02:30:55.433Z,10.00
2018-08-12T02:33:23.850Z,10.00
2018-08-12T02:35:52.329Z,9.90
2018-08-12T02:38:20.757Z,9.90
2018-08-12T02:40:49.213Z,9.80
2018-08-12T02:43:17.718Z,9.80
2018-08-12T02:45:46.170Z,9.80
2018-08-12T02:48:14.609Z,9.80
2018-08-12T02:50:43.116Z,9.70
2018-08-12T02:53:11.565Z,9.80
2018-08-12T02:55:40.063Z,9.70
2018-08-12T02:58:08.509Z,9.60
2018-08-12T03:00:36.979Z,9.70
2018-08-12T03:03:05.571Z,9.70
2018-08-12T03:05:34.069Z,9.70
2018-08-12T03:08:02.510Z,9.70
2018-08-12T03:10:30.991Z,9.70
2018-08-12T03:12:59.438Z,9.70
2018-08-12T03:15:27.906Z,9.60
2018-08-12T03:17:56.323Z,9.60
2018-08-12T03:20:24.769Z,9.50
2018-08-12T03:22:53.234Z,9.50
2018-08-12T03:25:21.726Z,9.50
2018-08-12T03:27:50.172Z,9.50
2018-08-12T03:30:18.669Z,9.50
2018-08-12T03:32:47.133Z,9.50
2018-08-12T03:35:15.615Z,9.50
2018-08-12T03:37:44.046Z,9.50
2018-08-12T03:40:13.673Z,9.50
2018-08-12T03:42:42.750Z,9.50
2018-08-12T03:45:11.297Z,9.50
2018-08-12T03:47:39.762Z,9.40
2018-08-12T03:50:09.602Z,9.40
2018-08-12T03:52:38.502Z,9.40
2018-08-12T03:55:07.620Z,9.30
2018-08-12T03:57:36.139Z,9.20
2018-08-12T04:00:07.979Z,9.10
2018-08-12T04:02:36.446Z,9.10
2018-08-12T04:05:05.622Z,9.10
2018-08-12T04:07:34.067Z,9.10
2018-08-12T04:10:02.557Z,9.10
2018-08-12T04:12:31.765Z,9.10
2018-08-12T04:15:00.242Z,9.20
2018-08-12T04:17:28.736Z,9.20
2018-08-12T04:19:57.270Z,9.20
2018-08-12T04:22:25.709Z,9.20
2018-08-12T04:24:54.166Z,9.20
2018-08-12T04:27:22.598Z,9.20
2018-08-12T04:29:51.096Z,9.10
2018-08-12T04:32:19.526Z,9.10
2018-08-12T04:34:47.973Z,9.10
2018-08-12T04:37:16.426Z,9.20
2018-08-12T04:39:44.880Z,9.20
2018-08-12T04:42:13.298Z,9.30
2018-08-12T04:44:41.748Z,9.40
2018-08-12T04:47:10.271Z,9.40
2018-08-12T04:49:38.730Z,9.40
2018-08-12T04:52:07.312Z,9.50
2018-08-12T04:54:35.773Z,9.60
2018-08-12T04:57:04.265Z,9.60
2018-08-12T04:59:32.724Z,9.70
2018-08-12T05:02:01.193Z,9.70
2018-08-12T05:04:29.661Z,9.80
2018-08-12T05:06:58.154Z,9.90
2018-08-12T05:09:26.601Z,10.00
2018-08-12T05:11:55.086Z,10.00
2018-08-12T05:14:23.542Z,10.10
2018-08-12T05:16:52.044Z,10.20
2018-08-12T05:19:20.503Z,10.30
2018-08-12T05:21:49.028Z,10.40
2018-08-12T05:24:17.473Z,10.40
2018-08-12T05:26:45.996Z,10.40
2018-08-12T05:29:14.446Z,10.50
2018-08-12T05:31:42.946Z,10.60
2018-08-12T05:34:11.466Z,10.80
2018-08-12T05:36:39.989Z,10.90
2018-08-12T05:39:11.998Z,11.00
2018-08-12T05:41:40.454Z,11.00
2018-08-12T05:44:08.960Z,11.10
2018-08-12T05:46:37.447Z,11.20
2018-08-12T05:49:05.965Z,11.30
2018-08-12T05:51:34.519Z,11.40
2018-08-12T05:54:03.074Z,11.60
2018-08-12T05:56:31.580Z,11.70
2018-08-12T05:59:00.046Z,11.90
2018-08-12T06:01:28.511Z,12.00
2018-08-12T06:03:56.973Z,12.20
2018-08-12T06:06:25.461Z,12.30
2018-08-12T06:08:53.992Z,12.40
2018-08-12T06:11:22.480Z,12.50
2018-08-12T06:13:50.928Z,12.70
2018-08-12T06:16:19.406Z,12.80
2018-08-12T06:18:47.878Z,13.00
2018-08-12T06:21:16.346Z,13.10
2018-08-12T06:23:44.816Z,13.10
2018-08-12T06:26:13.269Z,13.20
2018-08-12T06:28:41.753Z,13.40
2018-08-12T06:31:10.225Z,13.60
2018-08-12T06:33:38.701Z,13.70
2018-08-12T06:36:07.255Z,13.70
2018-08-12T06:38:35.768Z,13.70
2018-08-12T06:41:04.246Z,13.80
2018-08-12T06:43:32.729Z,13.90
2018-08-12T06:46:01.210Z,14.00
2018-08-12T06:48:29.702Z,14.20
2018-08-12T06:50:58.206Z,14.40
2018-08-12T06:53:26.742Z,14.40
2018-08-12T06:55:55.210Z,14.60
2018-08-12T06:58:23.678Z,14.70
2018-08-12T07:00:52.158Z,14.80
2018-08-12T07:03:20.650Z,15.10
2018-08-12T07:05:49.151Z,15.40
2018-08-12T07:08:17.633Z,15.60
2018-08-12T07:10:46.121Z,15.80
2018-08-12T07:13:14.579Z,16.10
2018-08-12T07:15:43.030Z,16.20
2018-08-12T07:18:11.493Z,16.40
2018-08-12T07:20:39.976Z,16.70
2018-08-12T07:23:08.453Z,16.90
2018-08-12T07:25:36.922Z,17.10
2018-08-12T07:28:05.432Z,17.20
2018-08-12T07:30:33.904Z,17.30
2018-08-12T07:33:02.395Z,17.50
2018-08-12T07:35:30.851Z,17.60
2018-08-12T07:37:59.315Z,17.80
2018-08-12T07:40:27.784Z,18.00
2018-08-12T07:42:56.305Z,18.10
2018-08-12T07:45:24.792Z,18.30
2018-08-12T07:47:53.298Z,18.60
2018-08-12T07:50:21.762Z,18.70
2018-08-12T07:52:50.212Z,18.80
2018-08-12T07:55:18.686Z,18.80
2018-08-12T07:57:47.185Z,19.10
2018-08-12T08:00:17.855Z,19.40
2018-08-12T08:02:46.618Z,19.70
2018-08-12T08:05:15.181Z,19.90
2018-08-12T08:07:43.794Z,20.00
2018-08-12T08:10:14.509Z,20.30
2018-08-12T08:12:43.037Z,20.50
2018-08-12T08:15:15.719Z,20.60
2018-08-12T08:17:44.313Z,20.80
2018-08-12T08:20:13.948Z,20.90
2018-08-12T08:22:42.533Z,21.10
2018-08-12T08:25:11.626Z,21.20
2018-08-12T08:27:40.220Z,21.30
2018-08-12T08:30:10.869Z,21.40
2018-08-12T08:32:39.544Z,21.40
2018-08-12T08:35:08.030Z,21.60
2018-08-12T08:37:36.529Z,21.80
2018-08-12T08:40:08.010Z,22.00
2018-08-12T08:42:36.468Z,22.20
2018-08-12T08:45:08.871Z,22.30
2018-08-12T08:47:37.326Z,22.50
2018-08-12T08:50:06.622Z,22.70
2018-08-12T08:52:35.076Z,22.50
2018-08-12T08:55:03.799Z,22.70
2018-08-12T08:57:32.277Z,22.80
2018-08-12T09:00:00.757Z,22.60
2018-08-12T09:02:29.317Z,22.40
2018-08-12T09:04:57.822Z,22.30
2018-08-12T09:07:26.284Z,22.80
2018-08-12T09:09:54.740Z,23.40
2018-08-12T09:12:23.194Z,23.80
2018-08-12T09:14:51.726Z,24.00
2018-08-12T09:17:20.229Z,23.70
2018-08-12T09:19:48.730Z,23.50
2018-08-12T09:22:17.214Z,23.40
2018-08-12T09:24:45.694Z,23.20
2018-08-12T09:27:14.186Z,23.50
2018-08-12T09:29:42.684Z,23.80
2018-08-12T09:32:11.246Z,24.30
2018-08-12T09:34:39.754Z,24.80
2018-08-12T09:37:08.232Z,25.20
2018-08-12T09:39:36.758Z,25.40
2018-08-12T09:42:05.399Z,25.50
2018-08-12T09:44:33.905Z,24.40
2018-08-12T09:47:02.386Z,23.90
2018-08-12T09:49:30.871Z,24.00
2018-08-12T09:51:59.358Z,24.30
2018-08-12T09:54:27.884Z,25.20
2018-08-12T09:56:56.373Z,25.50
2018-08-12T09:59:24.980Z,25.90
2018-08-12T10:01:53.474Z,26.90
2018-08-12T10:04:21.970Z,27.50
2018-08-12T10:06:50.425Z,28.40
2018-08-12T10:09:18.897Z,28.20
2018-08-12T10:11:47.368Z,27.30
2018-08-12T10:14:15.865Z,27.80
2018-08-12T10:16:44.422Z,28.10
2018-08-12T10:19:12.953Z,28.30
2018-08-12T10:21:41.466Z,27.90
2018-08-12T10:24:09.999Z,28.30
2018-08-12T10:26:38.458Z,28.00
2018-08-12T10:29:07.379Z,27.80
2018-08-12T10:31:35.822Z,27.40
2018-08-12T10:34:04.393Z,27.50
2018-08-12T10:36:32.873Z,27.90
2018-08-12T10:39:01.361Z,27.30
2018-08-12T10:41:29.810Z,27.60
2018-08-12T10:43:58.273Z,27.10
2018-08-12T10:46:26.762Z,26.80
2018-08-12T10:48:55.248Z,27.60
2018-08-12T10:51:23.728Z,28.10
2018-08-12T10:53:52.257Z,29.00
2018-08-12T10:56:20.813Z,30.40
2018-08-12T10:58:49.362Z,31.30
2018-08-12T11:01:17.873Z,30.10
2018-08-12T11:03:46.420Z,29.20
2018-08-12T11:06:14.942Z,30.50
2018-08-12T11:08:43.441Z,30.80
2018-08-12T11:11:11.998Z,29.90
2018-08-12T11:13:40.437Z,30.60
2018-08-12T11:16:09.014Z,30.60
2018-08-12T11:18:37.489Z,30.00
2018-08-12T11:21:06.037Z,30.90
2018-08-12T11:23:34.513Z,30.50
2018-08-12T11:26:03.221Z,30.40
2018-08-12T11:28:31.784Z,31.70
2018-08-12T11:31:00.231Z,31.30
2018-08-12T11:33:28.695Z,31.60
2018-08-12T11:35:57.190Z,30.00
2018-08-12T11:38:25.703Z,28.80
2018-08-12T11:40:54.212Z,29.10
2018-08-12T11:43:22.734Z,28.50
2018-08-12T11:45:51.259Z,30.00
2018-08-12T11:48:19.749Z,29.50
2018-08-12T11:50:48.610Z,29.40
2018-08-12T11:53:17.142Z,29.90
2018-08-12T11:55:45.689Z,29.30
2018-08-12T11:58:19.765Z,29.50
2018-08-12T12:00:48.237Z,29.50
2018-08-12T12:03:16.695Z,30.00
2018-08-12T12:05:45.201Z,30.00
2018-08-12T12:08:13.672Z,29.50
2018-08-12T12:10:42.127Z,30.00
2018-08-12T12:13:10.652Z,30.40
2018-08-12T12:15:39.410Z,29.20
2018-08-12T12:18:08.174Z,28.70
2018-08-12T12:20:36.720Z,29.30
2018-08-12T12:23:05.104Z,30.10
2018-08-12T12:25:33.595Z,29.10
2018-08-12T12:28:02.046Z,29.40
2018-08-12T12:30:30.585Z,29.40
2018-08-12T12:32:59.079Z,29.30
2018-08-12T12:35:27.593Z,30.10
2018-08-12T12:37:56.066Z,29.70
2018-08-12T12:40:24.622Z,29.80
2018-08-12T12:42:53.161Z,29.90
2018-08-12T12:45:21.613Z,30.00
2018-08-12T12:47:50.074Z,29.40
2018-08-12T12:50:20.331Z,29.60
2018-08-12T12:52:49.650Z,29.60
2018-08-12T12:55:18.953Z,29.30
2018-08-12T12:57:47.465Z,29.40
2018-08-12T13:00:17.681Z,29.50
2018-08-12T13:02:46.350Z,30.40
2018-08-12T13:05:16.180Z,29.70
2018-08-12T13:07:45.645Z,29.10
2018-08-12T13:10:15.171Z,29.40
2018-08-12T13:12:43.766Z,29.00
2018-08-12T13:15:12.837Z,29.40
2018-08-12T13:17:41.407Z,30.10
2018-08-12T13:20:16.633Z,29.10
2018-08-12T13:22:46.257Z,29.10
2018-08-12T13:25:16.402Z,29.90
2018-08-12T13:27:45.235Z,30.30
2018-08-12T13:30:14.593Z,30.30
2018-08-12T13:32:44.278Z,30.60
2018-08-12T13:35:12.776Z,31.30
2018-08-12T13:37:41.510Z,32.20
2018-08-12T13:40:12.579Z,32.50
2018-08-12T13:42:41.665Z,32.70
2018-08-12T13:45:11.236Z,32.90
2018-08-12T13:47:41.210Z,34.10
2018-08-12T13:50:12.774Z,33.90
2018-08-12T13:52:41.283Z,34.00
2018-08-12T13:55:10.044Z,34.20
2018-08-12T13:57:38.500Z,35.10
2018-08-12T14:00:10.773Z,34.30
2018-08-12T14:02:39.498Z,34.50
2018-08-12T14:05:08.062Z,33.80
2018-08-12T14:07:36.977Z,35.40
2018-08-12T14:10:06.753Z,36.30
2018-08-12T14:12:35.234Z,36.90
2018-08-12T14:15:04.149Z,34.50
2018-08-12T14:17:32.635Z,34.00
2018-08-12T14:20:01.062Z,34.80
2018-08-12T14:22:29.535Z,35.20
2018-08-12T14:24:57.985Z,36.70
2018-08-12T14:27:26.517Z,37.80
2018-08-12T14:29:54.944Z,39.40
2018-08-12T14:32:23.417Z,38.30
2018-08-12T14:34:51.858Z,37.50
2018-08-12T14:37:20.389Z,35.90
2018-08-12T14:39:49.131Z,34.10
2018-08-12T14:42:17.777Z,33.40
2018-08-12T14:44:46.331Z,34.40
2018-08-12T14:47:14.777Z,33.10
2018-08-12T14:49:43.192Z,34.10
2018-08-12T14:52:11.662Z,34.40
2018-08-12T14:54:40.116Z,35.60
2018-08-12T14:57:08.584Z,33.40
2018-08-12T14:59:36.997Z,34.40
2018-08-12T15:02:05.537Z,36.30
2018-08-12T15:04:34.022Z,36.80
2018-08-12T15:07:02.487Z,37.90
2018-08-12T15:09:30.918Z,35.50
2018-08-12T15:11:59.377Z,35.50
2018-08-12T15:14:27.809Z,36.20
2018-08-12T15:16:56.319Z,38.30
2018-08-12T15:19:24.822Z,37.60
2018-08-12T15:21:53.269Z,37.50
2018-08-12T15:24:21.726Z,34.80
2018-08-12T15:26:50.185Z,34.50
2018-08-12T15:29:18.784Z,34.40
2018-08-12T15:31:47.319Z,36.20
2018-08-12T15:34:15.793Z,36.40
2018-08-12T15:36:44.304Z,35.80
2018-08-12T15:39:14.041Z,33.00
2018-08-12T15:41:43.321Z,32.60
2018-08-12T15:44:11.817Z,30.90
2018-08-12T15:46:40.339Z,29.60
2018-08-12T15:49:08.787Z,29.00
2018-08-12T15:51:37.306Z,28.50
2018-08-12T15:54:05.817Z,28.40
2018-08-12T15:56:34.348Z,28.20
2018-08-12T15:59:02.792Z,28.10
2018-08-12T16:01:31.278Z,28.00
2018-08-12T16:03:59.696Z,27.70
2018-08-12T16:06:28.186Z,27.70
2018-08-12T16:08:56.622Z,27.70
2018-08-12T16:11:25.100Z,27.80
2018-08-12T16:13:53.550Z,27.70
2018-08-12T16:16:22.055Z,27.40
2018-08-12T16:18:50.533Z,27.30
2018-08-12T16:21:19.039Z,27.20
2018-08-12T16:23:47.505Z,27.30
2018-08-12T16:26:15.955Z,27.10
2018-08-12T16:28:44.453Z,27.00
2018-08-12T16:31:12.905Z,26.90
2018-08-12T16:33:41.371Z,26.80
2018-08-12T16:36:09.863Z,26.70
2018-08-12T16:38:38.339Z,26.70
2018-08-12T16:41:06.799Z,26.70
2018-08-12T16:43:35.237Z,26.70
2018-08-12T16:46:03.721Z,26.50
2018-08-12T16:48:32.190Z,26.40
2018-08-12T16:51:00.693Z,26.40
2018-08-12T16:53:29.184Z,26.30
2018-08-12T16:55:57.638Z,26.30
2018-08-12T16:58:26.095Z,26.30
2018-08-12T17:00:54.556Z,26.20
2018-08-12T17:03:23.193Z,26.20
2018-08-12T17:05:51.675Z,26.20
2018-08-12T17:08:20.138Z,26.10
2018-08-12T17:10:48.622Z,26.10
2018-08-12T17:13:17.093Z,26.00
2018-08-12T17:15:45.582Z,26.00
2018-08-12T17:18:14.119Z,25.90
2018-08-12T17:20:42.621Z,25.90
2018-08-12T17:23:11.107Z,25.90
2018-08-12T17:25:39.641Z,25.90
2018-08-12T17:28:08.034Z,25.80
2018-08-12T17:30:36.505Z,25.80
2018-08-12T17:33:05.003Z,25.80
2018-08-12T17:35:33.434Z,25.60
2018-08-12T17:38:01.901Z,25.60
2018-08-12T17:40:30.386Z,25.50
2018-08-12T17:42:58.853Z,25.50
2018-08-12T17:45:27.315Z,25.50
2018-08-12T17:47:55.777Z,25.30
2018-08-12T17:50:24.253Z,25.20
2018-08-12T17:52:52.722Z,25.10
2018-08-12T17:55:21.170Z,24.90
2018-08-12T17:57:49.683Z,24.70
2018-08-12T18:00:18.122Z,24.50
2018-08-12T18:02:46.605Z,24.30
2018-08-12T18:05:15.053Z,24.20
2018-08-12T18:07:43.546Z,24.00
2018-08-12T18:10:12.018Z,23.90
2018-08-12T18:12:40.493Z,23.70
2018-08-12T18:15:10.666Z,23.60
2018-08-12T18:17:39.872Z,23.40
2018-08-12T18:20:08.665Z,23.30
2018-08-12T18:22:37.247Z,23.20
2018-08-12T18:25:06.627Z,23.00
2018-08-12T18:27:35.429Z,22.90
2018-08-12T18:30:03.917Z,22.80
2018-08-12T18:32:32.377Z,22.70
2018-08-12T18:35:00.797Z,22.50
2018-08-12T18:37:29.247Z,22.40
2018-08-12T18:39:57.665Z,22.30
2018-08-12T18:42:26.162Z,22.20
2018-08-12T18:44:54.597Z,22.10
2018-08-12T18:47:23.067Z,22.00
2018-08-12T18:49:51.509Z,21.80
2018-08-12T18:52:19.954Z,21.70
2018-08-12T18:54:48.463Z,21.50
2018-08-12T18:57:18.230Z,21.40
2018-08-12T18:59:46.730Z,21.30
2018-08-12T19:02:15.269Z,21.20
2018-08-12T19:04:43.756Z,21.10
2018-08-12T19:07:12.262Z,20.90
2018-08-12T19:09:40.734Z,20.80
2018-08-12T19:12:09.267Z,20.80
2018-08-12T19:14:37.762Z,20.70
2018-08-12T19:17:06.311Z,20.60
2018-08-12T19:19:34.799Z,20.40
2018-08-12T19:22:03.269Z,20.40
2018-08-12T19:24:31.741Z,20.20
2018-08-12T19:27:00.202Z,20.10
2018-08-12T19:29:28.690Z,20.00
2018-08-12T19:31:57.186Z,19.90
2018-08-12T19:34:25.660Z,19.90
2018-08-12T19:36:54.126Z,19.80
2018-08-12T19:39:22.594Z,19.70
2018-08-12T19:41:51.029Z,19.70
2018-08-12T19:44:19.507Z,19.60
2018-08-12T19:46:48.000Z,19.50
2018-08-12T19:49:16.447Z,19.40
2018-08-12T19:51:44.935Z,19.40
2018-08-12T19:54:13.397Z,19.30
2018-08-12T19:56:41.886Z,19.30
2018-08-12T19:59:10.346Z,19.20
2018-08-12T20:01:38.795Z,19.10
2018-08-12T20:04:07.275Z,18.90
2018-08-12T20:06:35.723Z,18.90
2018-08-12T20:09:06.270Z,18.80
2018-08-12T20:11:34.697Z,18.70
2018-08-12T20:14:03.195Z,18.70
2018-08-12T20:16:31.663Z,18.70
2018-08-12T20:19:00.150Z,18.60
2018-08-12T20:21:28.621Z,18.50
2018-08-12T20:23:57.090Z,18.40
2018-08-12T20:26:25.614Z,18.40
2018-08-12T20:28:54.182Z,18.30
2018-08-12T20:31:22.721Z,18.30
2018-08-12T20:33:51.202Z,18.20
2018-08-12T20:36:19.723Z,18.20
2018-08-12T20:38:48.202Z,18.20
2018-08-12T20:41:16.758Z,18.20
2018-08-12T20:43:45.225Z,18.20
2018-08-12T20:46:13.719Z,18.10
2018-08-12T20:48:42.163Z,18.00
2018-08-12T20:51:10.847Z,17.90
2018-08-12T20:53:39.370Z,17.80
2018-08-12T20:56:07.946Z,17.80
2018-08-12T20:58:36.449Z,17.80
2018-08-12T21:01:04.951Z,17.80
2018-08-12T21:03:33.454Z,17.70
2018-08-12T21:06:02.800Z,17.70
2018-08-12T21:08:31.351Z,17.60
2018-08-12T21:10:59.900Z,17.60
2018-08-12T21:13:28.371Z,17.60
2018-08-12T21:15:56.926Z,17.50
2018-08-12T21:18:25.453Z,17.40
2018-08-12T21:20:53.958Z,17.30
2018-08-12T21:23:22.445Z,17.30
2018-08-12T21:25:50.949Z,17.20
2018-08-12T21:28:19.415Z,17.20
2018-08-12T21:30:47.905Z,17.20
2018-08-12T21:33:16.370Z,17.20
2018-08-12T21:35:44.869Z,17.20
2018-08-12T21:38:13.365Z,17.10
2018-08-12T21:40:41.838Z,17.20
2018-08-12T21:43:10.345Z,17.10
2018-08-12T21:45:38.866Z,16.80
2018-08-12T21:48:07.353Z,16.70
2018-08-12T21:50:35.829Z,16.60
2018-08-12T21:53:04.330Z,16.70
2018-08-12T21:55:32.854Z,16.70
2018-08-12T21:58:01.337Z,16.80
2018-08-12T22:00:29.846Z,16.80
2018-08-12T22:02:58.370Z,16.80
2018-08-12T22:05:26.826Z,16.70
2018-08-12T22:07:55.294Z,16.70
2018-08-12T22:10:23.767Z,16.60
2018-08-12T22:12:52.296Z,16.50
2018-08-12T22:15:20.763Z,16.50
2018-08-12T22:17:49.300Z,16.40
2018-08-12T22:20:17.771Z,16.50
2018-08-12T22:22:46.318Z,16.40
2018-08-12T22:25:14.765Z,16.40
2018-08-12T22:27:43.261Z,16.30
2018-08-12T22:30:14.789Z,16.20
2018-08-12T22:32:43.270Z,16.10
2018-08-12T22:35:11.754Z,16.10
2018-08-12T22:37:40.242Z,16.10
2018-08-12T22:40:09.126Z,16.10
2018-08-12T22:42:37.950Z,16.10
2018-08-12T22:45:07.897Z,16.00
2018-08-12T22:47:36.444Z,16.00
2018-08-12T22:50:05.432Z,15.90
2018-08-12T22:52:33.957Z,15.90
2018-08-12T22:55:02.550Z,15.80
2018-08-12T22:57:31.032Z,15.80
2018-08-12T22:59:59.494Z,15.80
2018-08-12T23:02:28.033Z,15.80
2018-08-12T23:04:57.158Z,15.70
2018-08-12T23:07:25.649Z,15.70
2018-08-12T23:09:54.177Z,15.70
2018-08-12T23:12:22.661Z,15.60
2018-08-12T23:14:51.142Z,15.70
2018-08-12T23:17:19.677Z,15.60
2018-08-12T23:19:48.146Z,15.60
2018-08-12T23:22:16.597Z,15.50
2018-08-12T23:24:45.034Z,15.50
2018-08-12T23:27:13.526Z,15.50
2018-08-12T23:29:41.985Z,15.50
2018-08-12T23:32:10.493Z,15.40
2018-08-12T23:34:38.943Z,15.40
2018-08-12T23:37:07.473Z,15.40
2018-08-12T23:39:35.933Z,15.40
2018-08-12T23:42:04.442Z,15.30
2018-08-12T23:44:32.889Z,15.30
2018-08-12T23:47:01.362Z,15.20
2018-08-12T23:49:29.848Z,15.00
2018-08-12T23:51:58.336Z,15.00
2018-08-12T23:54:26.777Z,15.00
2018-08-12T23:56:55.249Z,15.00
2018-08-12T23:59:23.734Z,15.00
